Time;durP1;ratioP1;P1;durP2;ratioP2;P2;SDS_P1;SDS_P2;PMS_P1;PMS_P2;Temp;Humidity;BMP_temperature;BMP_pressure;BME280_temperature;BME280_humidity;BME280_pressure;Samples;Min_cycle;Max_cycle;Signal;HPM_P1;HPM_P2
2022/10/28 00:01:10;;;;;;;0.40;0.40;;;16.60;99.90;;;;;;4971202;28;20262;-85
2022/10/28 00:03:42;;;;;;;0.40;0.40;;;16.50;99.90;;;;;;4982007;28;20044;-86
2022/10/28 00:06:11;;;;;;;0.40;0.40;;;16.40;99.90;;;;;;4970146;28;20233;-86
2022/10/28 00:08:37;;;;;;;0.40;0.40;;;16.30;99.90;;;;;;4972253;28;20778;-85
2022/10/28 00:11:12;;;;;;;0.50;0.50;;;16.20;99.90;;;;;;4969314;28;20056;-86
2022/10/28 00:13:41;;;;;;;0.40;0.40;;;16.10;99.90;;;;;;4968299;28;21015;-86
2022/10/28 00:16:20;;;;;;;0.50;0.50;;;16.00;99.90;;;;;;4972440;28;20524;-85
2022/10/28 00:18:46;;;;;;;0.50;0.50;;;16.00;99.90;;;;;;4968154;28;20790;-85
2022/10/28 00:21:17;;;;;;;0.50;0.50;;;15.90;99.90;;;;;;4970418;28;20410;-84
2022/10/28 00:23:43;;;;;;;0.50;0.50;;;15.90;99.90;;;;;;4968520;28;20040;-85
2022/10/28 00:26:15;;;;;;;0.50;0.50;;;15.90;99.90;;;;;;4959841;28;20048;-86
2022/10/28 00:28:48;;;;;;;0.50;0.50;;;15.70;99.90;;;;;;4975217;28;20052;-85
2022/10/28 00:31:16;;;;;;;0.50;0.50;;;15.60;99.90;;;;;;4978147;28;20049;-85
2022/10/28 00:33:42;;;;;;;0.50;0.50;;;15.50;99.90;;;;;;4963308;28;20053;-83
2022/10/28 00:36:13;;;;;;;0.50;0.50;;;15.70;99.90;;;;;;4967432;28;20052;-85
2022/10/28 00:38:40;;;;;;;0.50;0.50;;;15.60;99.90;;;;;;4966334;28;20055;-85
2022/10/28 00:41:06;;;;;;;0.50;0.50;;;15.60;99.90;;;;;;4968364;28;20396;-84
2022/10/28 00:43:39;;;;;;;0.50;0.50;;;15.60;99.90;;;;;;4958854;28;20113;-85
2022/10/28 00:46:32;;;;;;;0.50;0.50;;;15.70;99.90;;;;;;4973079;28;20110;-84
2022/10/28 00:49:14;;;;;;;0.50;0.50;;;15.80;99.90;;;;;;4964066;28;20057;-85
2022/10/28 00:51:42;;;;;;;0.50;0.50;;;15.80;99.90;;;;;;4967141;28;20056;-85
2022/10/28 00:54:08;;;;;;;0.43;0.43;;;15.90;99.90;;;;;;4962052;28;20650;-85
2022/10/28 00:56:38;;;;;;;0.50;0.50;;;15.80;99.90;;;;;;4970677;28;20049;-85
2022/10/28 00:59:10;;;;;;;0.50;0.50;;;15.70;99.90;;;;;;4953910;28;20207;-85
2022/10/28 01:01:36;;;;;;;0.50;0.50;;;15.60;99.90;;;;;;4964852;28;20159;-86
2022/10/28 01:04:02;;;;;;;0.50;0.50;;;15.60;99.90;;;;;;4972113;28;20049;-85
2022/10/28 01:06:29;;;;;;;0.50;0.50;;;15.50;99.90;;;;;;4967428;28;20049;-85
2022/10/28 01:08:54;;;;;;;0.50;0.50;;;15.60;99.90;;;;;;4974380;28;20879;-85
2022/10/28 01:11:51;;;;;;;0.50;0.50;;;15.50;99.90;;;;;;4979549;28;20064;-85
2022/10/28 01:14:20;;;;;;;0.50;0.50;;;15.40;99.90;;;;;;4997161;28;20548;-86
2022/10/28 01:17:08;;;;;;;0.50;0.50;;;15.40;99.90;;;;;;4957152;28;20854;-86
2022/10/28 01:19:46;;;;;;;0.50;0.50;;;15.30;99.90;;;;;;4978215;28;20432;-85
2022/10/28 01:22:45;;;;;;;0.50;0.50;;;15.20;99.90;;;;;;4971400;28;20040;-85
2022/10/28 01:25:26;;;;;;;0.50;0.50;;;15.00;99.90;;;;;;4974104;28;20080;-86
2022/10/28 01:28:01;;;;;;;0.50;0.50;;;15.00;99.90;;;;;;4981671;28;20040;-85
2022/10/28 01:30:35;;;;;;;0.50;0.50;;;14.80;99.90;;;;;;4969014;28;20699;-85
2022/10/28 01:33:08;;;;;;;0.50;0.50;;;14.80;99.90;;;;;;4963409;28;20044;-86
2022/10/28 01:35:40;;;;;;;0.50;0.50;;;14.80;99.90;;;;;;4976572;28;20872;-85
2022/10/28 01:38:27;;;;;;;0.50;0.50;;;14.90;99.90;;;;;;4965055;28;20066;-85
2022/10/28 01:41:11;;;;;;;0.50;0.50;;;14.90;99.90;;;;;;4979206;28;20052;-86
2022/10/28 01:44:12;;;;;;;0.50;0.50;;;14.90;99.90;;;;;;4974759;28;20352;-85
2022/10/28 01:46:44;;;;;;;0.50;0.50;;;15.00;99.90;;;;;;4976497;28;20049;-85
2022/10/28 01:49:17;;;;;;;0.50;0.50;;;14.90;99.90;;;;;;4966963;28;20048;-85
2022/10/28 01:51:47;;;;;;;0.50;0.50;;;15.00;99.90;;;;;;4973592;28;20056;-85
2022/10/28 01:54:18;;;;;;;0.50;0.50;;;15.00;99.90;;;;;;5002672;28;20805;-86
2022/10/28 01:56:47;;;;;;;0.50;0.50;;;15.00;99.90;;;;;;4964362;28;21083;-85
2022/10/28 01:59:19;;;;;;;0.50;0.50;;;15.10;99.90;;;;;;4943868;28;20071;-85
2022/10/28 02:01:44;;;;;;;0.50;0.50;;;15.00;99.90;;;;;;4971232;28;20051;-85
2022/10/28 02:04:10;;;;;;;0.50;0.50;;;15.10;99.90;;;;;;4959095;28;20486;-85
2022/10/28 02:06:37;;;;;;;0.47;0.47;;;14.90;99.90;;;;;;4954507;28;20052;-85
2022/10/28 02:09:28;;;;;;;0.50;0.50;;;15.00;99.90;;;;;;4950314;28;20050;-85
2022/10/28 02:12:22;;;;;;;0.50;0.50;;;15.00;99.90;;;;;;4947616;28;20051;-84
2022/10/28 02:15:16;;;;;;;0.50;0.50;;;15.00;99.90;;;;;;4977285;28;20382;-85
2022/10/28 02:18:19;;;;;;;0.50;0.50;;;14.80;99.90;;;;;;4969669;28;20369;-85
2022/10/28 02:20:48;;;;;;;0.50;0.50;;;14.80;99.90;;;;;;4974833;28;20048;-85
2022/10/28 02:23:35;;;;;;;0.50;0.50;;;14.80;99.90;;;;;;4971088;28;20085;-85
2022/10/28 02:26:36;;;;;;;0.40;0.40;;;14.80;99.90;;;;;;4963299;28;20047;-86
2022/10/28 02:29:05;;;;;;;0.43;0.43;;;14.70;99.90;;;;;;4970409;28;20110;-85
2022/10/28 02:31:44;;;;;;;0.50;0.50;;;14.70;99.90;;;;;;4973398;28;20048;-86
2022/10/28 02:34:19;;;;;;;0.50;0.50;;;14.60;99.90;;;;;;4965209;28;20685;-86
2022/10/28 02:36:49;;;;;;;0.50;0.50;;;14.60;99.90;;;;;;4966727;28;20860;-85
2022/10/28 02:39:19;;;;;;;0.50;0.50;;;14.40;99.90;;;;;;4973176;28;20128;-85
2022/10/28 02:41:57;;;;;;;0.50;0.50;;;14.30;99.90;;;;;;4976504;28;20562;-86
2022/10/28 02:44:28;;;;;;;0.50;0.50;;;14.20;99.90;;;;;;4974219;28;20948;-85
2022/10/28 02:46:58;;;;;;;0.50;0.50;;;14.10;99.90;;;;;;4956275;28;20117;-86
2022/10/28 02:49:25;;;;;;;0.50;0.50;;;14.20;99.90;;;;;;4959653;28;20948;-85
2022/10/28 02:51:56;;;;;;;0.50;0.50;;;14.00;99.90;;;;;;4949193;28;20105;-86
2022/10/28 02:54:25;;;;;;;0.50;0.50;;;13.90;99.90;;;;;;4980709;28;20049;-85
2022/10/28 02:57:05;;;;;;;0.50;0.50;;;14.00;99.90;;;;;;4973691;28;20130;-86
2022/10/28 02:59:31;;;;;;;0.50;0.50;;;14.00;99.90;;;;;;5005865;28;20052;-86
2022/10/28 03:01:57;;;;;;;0.50;0.50;;;13.90;99.90;;;;;;4996401;28;20040;-87
2022/10/28 03:04:23;;;;;;;0.50;0.50;;;13.70;99.90;;;;;;4967083;28;20468;-86
2022/10/28 03:06:49;;;;;;;0.50;0.50;;;13.70;99.90;;;;;;4973461;28;20251;-86
2022/10/28 03:09:15;;;;;;;0.50;0.50;;;13.90;99.90;;;;;;4971825;28;20051;-86
2022/10/28 03:11:53;;;;;;;0.50;0.50;;;13.90;99.90;;;;;;4949064;28;20044;-85
2022/10/28 03:14:19;;;;;;;0.50;0.50;;;14.00;99.90;;;;;;4971961;28;20048;-86
2022/10/28 03:16:44;;;;;;;0.52;0.52;;;13.90;99.90;;;;;;4972561;28;20438;-86
2022/10/28 03:19:10;;;;;;;0.50;0.50;;;14.00;99.90;;;;;;4954717;28;20476;-85
2022/10/28 03:21:36;;;;;;;0.50;0.50;;;14.00;99.90;;;;;;4971762;28;20139;-86
2022/10/28 03:24:01;;;;;;;0.50;0.50;;;14.10;99.90;;;;;;4949911;28;20520;-86
2022/10/28 03:26:27;;;;;;;0.50;0.50;;;14.10;99.90;;;;;;4967705;28;20437;-85
2022/10/28 03:28:53;;;;;;;0.50;0.50;;;14.20;99.90;;;;;;4959155;28;20054;-85
2022/10/28 03:31:19;;;;;;;0.50;0.50;;;14.30;99.90;;;;;;4960829;28;20155;-86
2022/10/28 03:33:44;;;;;;;0.50;0.50;;;14.40;99.90;;;;;;4972743;28;20638;-86
2022/10/28 03:36:10;;;;;;;0.50;0.50;;;14.30;99.90;;;;;;4955797;28;20097;-86
2022/10/28 03:38:36;;;;;;;0.50;0.50;;;14.10;99.90;;;;;;4969435;28;20481;-86
2022/10/28 03:41:02;;;;;;;0.50;0.50;;;13.90;99.90;;;;;;4958120;28;20048;-86
2022/10/28 03:43:30;;;;;;;0.50;0.50;;;14.00;99.90;;;;;;4971477;28;20557;-85
2022/10/28 03:45:56;;;;;;;0.50;0.50;;;14.00;99.90;;;;;;4968078;28;20083;-86
2022/10/28 03:48:21;;;;;;;0.50;0.50;;;14.00;99.90;;;;;;4950965;28;20398;-85
2022/10/28 03:50:51;;;;;;;0.50;0.50;;;13.90;99.90;;;;;;4971161;28;20055;-84
2022/10/28 03:53:17;;;;;;;0.50;0.50;;;13.90;99.90;;;;;;4969628;28;20397;-86
2022/10/28 03:55:53;;;;;;;0.50;0.50;;;13.90;99.90;;;;;;4967681;28;20080;-85
2022/10/28 03:58:19;;;;;;;0.47;0.47;;;14.00;99.90;;;;;;4971165;28;20420;-85
2022/10/28 04:00:48;;;;;;;0.50;0.50;;;14.00;99.90;;;;;;4966186;28;20487;-86
2022/10/28 04:03:15;;;;;;;0.50;0.50;;;14.00;99.90;;;;;;4957465;28;20040;-87
2022/10/28 04:05:41;;;;;;;0.50;0.50;;;14.00;99.90;;;;;;4968828;28;20216;-86
2022/10/28 04:08:06;;;;;;;0.50;0.50;;;14.10;99.90;;;;;;4954300;28;20768;-85
2022/10/28 04:10:32;;;;;;;0.50;0.50;;;14.00;99.90;;;;;;4969784;28;20115;-86
2022/10/28 04:13:00;;;;;;;0.50;0.50;;;14.00;99.90;;;;;;4973226;28;20044;-87
2022/10/28 04:15:25;;;;;;;0.50;0.50;;;14.00;99.90;;;;;;4988506;28;20059;-85
2022/10/28 04:17:51;;;;;;;0.50;0.50;;;13.90;99.90;;;;;;4972741;28;20441;-86
2022/10/28 04:20:17;;;;;;;0.50;0.50;;;13.90;99.90;;;;;;4956327;28;20621;-87
2022/10/28 04:22:43;;;;;;;0.50;0.50;;;13.80;99.90;;;;;;4964729;28;20115;-85
2022/10/28 04:25:09;;;;;;;0.45;0.45;;;13.80;99.90;;;;;;5023367;28;20044;-86
2022/10/28 04:27:53;;;;;;;0.50;0.50;;;14.00;99.90;;;;;;5026099;28;20049;-86
2022/10/28 04:30:19;;;;;;;0.50;0.50;;;14.10;99.90;;;;;;5032167;28;20514;-86
2022/10/28 04:32:45;;;;;;;0.50;0.50;;;14.00;99.90;;;;;;5034327;28;20493;-85
2022/10/28 04:35:12;;;;;;;0.50;0.50;;;14.00;99.90;;;;;;5021217;28;20059;-85
2022/10/28 04:37:39;;;;;;;0.50;0.50;;;14.00;99.90;;;;;;5014411;28;20245;-86
2022/10/28 04:40:05;;;;;;;0.50;0.50;;;13.90;99.90;;;;;;4963534;28;20228;-86
2022/10/28 04:42:31;;;;;;;0.50;0.50;;;13.90;99.90;;;;;;4970943;28;20048;-86
2022/10/28 04:44:57;;;;;;;0.50;0.50;;;13.90;99.90;;;;;;4960516;28;20064;-86
2022/10/28 04:47:23;;;;;;;0.50;0.50;;;13.90;99.90;;;;;;4970752;28;20070;-86
2022/10/28 04:49:48;;;;;;;0.50;0.50;;;13.80;99.90;;;;;;4970195;28;20458;-86
2022/10/28 04:52:14;;;;;;;0.50;0.50;;;14.00;99.90;;;;;;4956977;28;20079;-85
2022/10/28 04:54:40;;;;;;;0.50;0.50;;;13.90;99.90;;;;;;4958854;28;20057;-86
2022/10/28 04:57:06;;;;;;;0.43;0.43;;;14.00;99.90;;;;;;4951054;28;20105;-87
2022/10/28 04:59:32;;;;;;;0.50;0.50;;;14.10;99.90;;;;;;4968987;28;20059;-87
2022/10/28 05:01:58;;;;;;;0.50;0.50;;;13.90;99.90;;;;;;4946347;28;20048;-87
2022/10/28 05:04:23;;;;;;;0.50;0.50;;;13.80;99.90;;;;;;4969943;28;20107;-85
2022/10/28 05:06:49;;;;;;;0.50;0.50;;;13.70;99.90;;;;;;4969648;28;22479;-88
2022/10/28 05:09:15;;;;;;;0.47;0.47;;;13.90;99.90;;;;;;4943439;28;20175;-87
2022/10/28 05:11:41;;;;;;;0.50;0.50;;;13.90;99.90;;;;;;4973816;28;20048;-87
2022/10/28 05:14:06;;;;;;;0.50;0.50;;;14.00;99.90;;;;;;4976273;28;20054;-87
2022/10/28 05:16:32;;;;;;;0.50;0.50;;;14.00;99.90;;;;;;4974174;28;20048;-88
2022/10/28 05:18:59;;;;;;;0.50;0.50;;;14.30;99.90;;;;;;4966831;28;20460;-87
2022/10/28 05:21:25;;;;;;;0.50;0.50;;;14.20;99.90;;;;;;4968690;28;20055;-86
2022/10/28 05:23:50;;;;;;;0.50;0.50;;;14.40;99.90;;;;;;4971946;28;20506;-86
2022/10/28 05:26:16;;;;;;;0.47;0.47;;;14.40;99.90;;;;;;4969561;28;20405;-86
2022/10/28 05:28:42;;;;;;;0.50;0.50;;;14.40;99.90;;;;;;4969997;28;20212;-87
2022/10/28 05:31:09;;;;;;;0.50;0.50;;;14.30;99.90;;;;;;4972008;28;20052;-91
2022/10/28 05:33:35;;;;;;;0.50;0.50;;;14.30;99.90;;;;;;4949872;28;20410;-87
2022/10/28 05:36:01;;;;;;;0.50;0.50;;;14.20;99.90;;;;;;4969082;28;20474;-89
2022/10/28 05:38:27;;;;;;;0.50;0.50;;;14.20;99.90;;;;;;4981825;28;20087;-87
2022/10/28 05:40:53;;;;;;;0.50;0.50;;;14.10;99.90;;;;;;4978654;28;20074;-88
2022/10/28 05:43:19;;;;;;;0.50;0.50;;;14.10;99.90;;;;;;4957136;28;20049;-89
2022/10/28 05:45:52;;;;;;;0.50;0.50;;;14.10;99.90;;;;;;4991235;28;20078;-88
2022/10/28 05:48:18;;;;;;;0.50;0.50;;;14.20;99.90;;;;;;4943754;28;20044;-89
2022/10/28 05:50:44;;;;;;;0.50;0.50;;;14.20;99.90;;;;;;4924150;28;20047;-91
2022/10/28 05:53:09;;;;;;;0.50;0.50;;;14.30;99.90;;;;;;4968488;28;20486;-90
2022/10/28 05:55:35;;;;;;;0.50;0.50;;;14.40;99.90;;;;;;4934178;28;20361;-90
2022/10/28 05:58:04;;;;;;;0.50;0.50;;;14.50;99.90;;;;;;4932810;28;20523;-88
2022/10/28 06:00:30;;;;;;;0.50;0.50;;;14.70;99.90;;;;;;4970583;28;20356;-89
2022/10/28 06:03:10;;;;;;;0.50;0.50;;;14.80;99.90;;;;;;4988054;28;20070;-89
2022/10/28 06:05:44;;;;;;;0.50;0.50;;;14.80;99.90;;;;;;4966641;28;20517;-91
2022/10/28 06:08:13;;;;;;;0.50;0.50;;;14.90;99.90;;;;;;4978771;28;20040;-91
2022/10/28 06:10:49;;;;;;;0.50;0.50;;;14.90;99.90;;;;;;4962204;28;20048;-90
2022/10/28 06:13:14;;;;;;;0.50;0.50;;;15.10;99.90;;;;;;4971148;28;20044;-88
2022/10/28 06:15:40;;;;;;;0.50;0.50;;;15.10;99.90;;;;;;4978909;28;20071;-88
2022/10/28 06:18:06;;;;;;;0.50;0.50;;;15.00;99.90;;;;;;4952345;28;20476;-89
2022/10/28 06:20:32;;;;;;;0.50;0.50;;;15.10;99.90;;;;;;4952048;28;20826;-89
2022/10/28 06:23:00;;;;;;;0.50;0.50;;;15.10;99.90;;;;;;4944240;28;20467;-91
2022/10/28 06:25:26;;;;;;;0.50;0.50;;;15.10;99.90;;;;;;4952242;28;20075;-88
2022/10/28 06:27:53;;;;;;;0.50;0.50;;;15.10;99.90;;;;;;4982397;28;20474;-88
2022/10/28 06:30:19;;;;;;;0.50;0.50;;;15.10;99.90;;;;;;4982093;28;20536;-86
2022/10/28 06:32:44;;;;;;;0.50;0.50;;;15.20;99.90;;;;;;4961388;28;20048;-88
2022/10/28 06:35:10;;;;;;;0.50;0.50;;;15.10;99.90;;;;;;4974886;28;20151;-88
2022/10/28 06:37:40;;;;;;;0.50;0.50;;;15.00;99.90;;;;;;4960629;28;20099;-91
2022/10/28 06:40:07;;;;;;;0.50;0.50;;;15.00;99.90;;;;;;4969516;28;20050;-87
2022/10/28 06:42:32;;;;;;;0.50;0.50;;;15.00;99.90;;;;;;4962776;28;20632;-93
2022/10/28 06:45:01;;;;;;;0.50;0.50;;;14.90;99.90;;;;;;4932955;28;20040;-87
2022/10/28 06:47:27;;;;;;;0.50;0.50;;;15.00;99.90;;;;;;4955774;28;20556;-88
2022/10/28 06:49:52;;;;;;;0.50;0.50;;;15.10;99.90;;;;;;4962815;28;20055;-85
2022/10/28 06:52:18;;;;;;;0.50;0.50;;;15.00;99.90;;;;;;4941274;28;20516;-88
2022/10/28 06:54:44;;;;;;;0.50;0.50;;;15.10;99.90;;;;;;4985436;28;20401;-92
2022/10/28 06:57:10;;;;;;;0.50;0.50;;;15.10;99.90;;;;;;4955707;28;20051;-90
2022/10/28 06:59:39;;;;;;;0.50;0.50;;;15.10;99.90;;;;;;4976189;28;20524;-89
2022/10/28 07:02:05;;;;;;;0.45;0.45;;;15.20;99.90;;;;;;4954498;28;20051;-86
2022/10/28 07:04:37;;;;;;;0.50;0.50;;;15.20;99.90;;;;;;4965843;28;20098;-92
2022/10/28 07:07:06;;;;;;;0.50;0.50;;;15.30;99.90;;;;;;4969978;28;20051;-91
2022/10/28 07:09:32;;;;;;;0.50;0.50;;;15.40;99.90;;;;;;4947211;28;20075;-90
2022/10/28 07:11:58;;;;;;;0.50;0.50;;;15.60;99.90;;;;;;4957487;28;20036;-87
2022/10/28 07:14:26;;;;;;;0.50;0.50;;;15.70;99.90;;;;;;4973826;28;20788;-92
2022/10/28 07:16:52;;;;;;;0.50;0.50;;;15.80;99.90;;;;;;4976029;28;20064;-89
2022/10/28 07:19:18;;;;;;;0.50;0.50;;;15.80;99.90;;;;;;4964619;28;20648;-92
2022/10/28 07:21:46;;;;;;;0.50;0.50;;;15.90;99.90;;;;;;4938686;28;20147;-91
2022/10/28 07:24:11;;;;;;;0.50;0.50;;;15.90;99.90;;;;;;4979279;28;20057;-89
2022/10/28 07:26:37;;;;;;;0.50;0.50;;;16.00;99.90;;;;;;4954305;28;20649;-92
2022/10/28 07:29:03;;;;;;;0.50;0.50;;;16.10;99.90;;;;;;4944948;28;20265;-87
2022/10/28 07:31:30;;;;;;;0.50;0.50;;;16.20;99.90;;;;;;4963620;28;20051;-89
2022/10/28 07:33:56;;;;;;;0.50;0.50;;;16.30;99.90;;;;;;4933635;28;20228;-88
2022/10/28 07:36:22;;;;;;;0.43;0.43;;;16.50;99.90;;;;;;4980292;28;20051;-90
2022/10/28 07:38:50;;;;;;;0.50;0.50;;;16.60;99.90;;;;;;4963888;28;20429;-89
2022/10/28 07:41:17;;;;;;;0.50;0.50;;;16.70;99.90;;;;;;4965148;28;20102;-83
2022/10/28 07:43:43;;;;;;;0.40;0.40;;;16.80;99.90;;;;;;4989551;28;20094;-88
2022/10/28 07:46:09;;;;;;;0.45;0.45;;;16.90;99.90;;;;;;4938322;28;21088;-89
2022/10/28 07:48:36;;;;;;;0.40;0.40;;;16.90;99.90;;;;;;4957423;28;20052;-89
2022/10/28 07:51:04;;;;;;;0.50;0.50;;;17.10;99.90;;;;;;4966074;28;20646;-90
2022/10/28 07:53:30;;;;;;;0.40;0.40;;;17.20;99.90;;;;;;4937936;28;20392;-89
2022/10/28 07:55:58;;;;;;;0.40;0.40;;;17.30;99.90;;;;;;4938554;28;20048;-87
2022/10/28 07:58:24;;;;;;;0.40;0.40;;;17.40;99.90;;;;;;4969951;28;20056;-84
2022/10/28 08:00:50;;;;;;;0.40;0.40;;;17.50;99.90;;;;;;4972235;28;20044;-91
2022/10/28 08:03:16;;;;;;;0.50;0.50;;;17.60;99.90;;;;;;4977117;28;20983;-91
2022/10/28 08:06:16;;;;;;;0.40;0.40;;;17.70;99.90;;;;;;4965387;28;20219;-86
2022/10/28 08:08:42;;;;;;;0.40;0.40;;;17.80;99.90;;;;;;4977893;28;20059;-90
2022/10/28 08:11:21;;;;;;;0.40;0.40;;;17.80;99.90;;;;;;4956027;28;20047;-88
2022/10/28 08:13:54;;;;;;;0.40;0.40;;;17.90;99.90;;;;;;4982160;28;20048;-91
2022/10/28 08:16:19;;;;;;;0.40;0.40;;;17.90;99.90;;;;;;4959209;28;20155;-89
2022/10/28 08:18:45;;;;;;;0.40;0.40;;;18.00;99.90;;;;;;4937866;28;20455;-87
2022/10/28 08:21:13;;;;;;;0.40;0.40;;;18.10;99.90;;;;;;4939146;28;20413;-86
2022/10/28 08:23:40;;;;;;;0.45;0.45;;;18.20;99.90;;;;;;4960722;28;20203;-89
2022/10/28 08:26:07;;;;;;;0.40;0.40;;;18.20;99.90;;;;;;4971222;28;20564;-89
2022/10/28 08:28:32;;;;;;;0.40;0.40;;;18.20;99.90;;;;;;4945752;28;20559;-82
2022/10/28 08:31:00;;;;;;;0.40;0.40;;;18.30;99.90;;;;;;4981708;28;20110;-90
2022/10/28 08:33:30;;;;;;;0.40;0.40;;;18.40;99.90;;;;;;4980675;28;20075;-93
2022/10/28 08:35:56;;;;;;;0.40;0.40;;;18.50;99.90;;;;;;4945709;28;21156;-87
2022/10/28 08:38:21;;;;;;;0.40;0.40;;;18.70;99.90;;;;;;4976641;28;20048;-91
2022/10/28 08:41:24;;;;;;;0.40;0.40;;;18.80;99.90;;;;;;4975960;28;20309;-89
2022/10/28 08:44:11;;;;;;;0.40;0.40;;;18.80;99.90;;;;;;4953462;28;20052;-86
2022/10/28 08:46:50;;;;;;;0.40;0.40;;;18.90;99.90;;;;;;4957110;28;20051;-87
2022/10/28 08:49:20;;;;;;;0.40;0.40;;;18.90;99.90;;;;;;4974299;28;20105;-91
2022/10/28 08:52:39;;;;;;;0.40;0.40;;;19.00;99.90;;;;;;4973858;28;20444;-93
2022/10/28 08:55:16;;;;;;;0.40;0.40;;;19.00;99.90;;;;;;4918077;28;20443;-88
2022/10/28 08:57:53;;;;;;;0.40;0.40;;;19.10;99.90;;;;;;4920477;28;20251;-94
2022/10/28 09:00:38;;;;;;;0.40;0.40;;;19.30;99.90;;;;;;4957200;28;20059;-90
2022/10/28 09:03:27;;;;;;;0.32;0.32;;;19.40;99.90;;;;;;4937432;28;20051;-86
2022/10/28 09:06:06;;;;;;;0.40;0.40;;;19.60;99.90;;;;;;4979163;28;20229;-94
2022/10/28 09:08:43;;;;;;;0.40;0.40;;;19.80;99.90;;;;;;4979244;28;20421;-93
2022/10/28 09:11:54;;;;;;;0.40;0.40;;;19.80;99.90;;;;;;4947659;28;20106;-92
2022/10/28 09:15:02;;;;;;;0.40;0.40;;;19.80;99.90;;;;;;4967569;28;20351;-91
2022/10/28 09:17:37;;;;;;;0.40;0.40;;;19.90;99.90;;;;;;4970376;28;20040;-90
2022/10/28 09:20:13;;;;;;;0.40;0.40;;;19.90;99.90;;;;;;4972851;28;20051;-93
2022/10/28 09:22:57;;;;;;;0.40;0.40;;;19.90;99.90;;;;;;4975132;28;20054;-88
2022/10/28 09:25:27;;;;;;;0.50;0.50;;;20.00;99.90;;;;;;4969967;28;20357;-90
2022/10/28 09:28:33;;;;;;;0.40;0.40;;;19.90;99.90;;;;;;4970261;28;20317;-89
2022/10/28 09:31:00;;;;;;;0.40;0.40;;;19.90;99.90;;;;;;4962132;28;20097;-89
2022/10/28 09:33:34;;;;;;;0.40;0.40;;;19.90;99.90;;;;;;4974131;28;20612;-90
2022/10/28 09:36:05;;;;;;;0.40;0.40;;;19.90;99.90;;;;;;4981332;28;20048;-89
2022/10/28 09:38:34;;;;;;;0.40;0.40;;;19.80;99.90;;;;;;4947007;28;20243;-84
2022/10/28 09:41:12;;;;;;;0.40;0.40;;;19.80;99.90;;;;;;4987208;28;20082;-88
2022/10/28 09:43:49;;;;;;;0.30;0.30;;;20.00;99.90;;;;;;4993298;28;20123;-91
2022/10/28 09:46:17;;;;;;;0.32;0.32;;;19.90;99.90;;;;;;4981713;28;20108;-88
2022/10/28 09:48:45;;;;;;;0.30;0.30;;;19.90;99.90;;;;;;4980652;28;20592;-90
2022/10/28 09:51:20;;;;;;;0.40;0.40;;;19.80;99.90;;;;;;4996861;28;20937;-91
2022/10/28 09:54:12;;;;;;;0.40;0.40;;;19.70;99.90;;;;;;4984172;28;20068;-89
2022/10/28 09:56:38;;;;;;;0.40;0.40;;;19.70;99.90;;;;;;4967445;28;20088;-88
2022/10/28 09:59:05;;;;;;;0.40;0.40;;;19.80;99.90;;;;;;4980001;28;20446;-86
2022/10/28 10:01:37;;;;;;;0.40;0.40;;;19.70;99.90;;;;;;4989441;28;20044;-88
2022/10/28 10:04:15;;;;;;;0.40;0.40;;;19.80;99.90;;;;;;4976084;28;20379;-89
2022/10/28 10:06:42;;;;;;;0.40;0.40;;;19.80;99.90;;;;;;4958814;28;21013;-92
2022/10/28 10:09:19;;;;;;;0.40;0.40;;;19.80;99.90;;;;;;4947927;28;20059;-93
2022/10/28 10:11:47;;;;;;;0.35;0.35;;;19.90;99.90;;;;;;4958671;28;20619;-90
2022/10/28 10:14:43;;;;;;;0.40;0.40;;;20.00;99.90;;;;;;4938804;28;20498;-87
2022/10/28 10:17:16;;;;;;;0.30;0.30;;;20.10;99.90;;;;;;4948451;28;20223;-87
2022/10/28 10:20:07;;;;;;;0.40;0.40;;;20.10;99.90;;;;;;4977539;28;20045;-89
2022/10/28 10:22:34;;;;;;;0.40;0.40;;;20.20;99.90;;;;;;4982979;28;20052;-89
2022/10/28 10:25:05;;;;;;;0.40;0.40;;;20.20;99.90;;;;;;4964519;28;20473;-92
2022/10/28 10:27:31;;;;;;;0.40;0.40;;;20.30;99.90;;;;;;4962798;28;20075;-88
2022/10/28 10:29:57;;;;;;;0.30;0.30;;;20.40;99.90;;;;;;4940548;28;20365;-90
2022/10/28 10:32:31;;;;;;;0.30;0.30;;;20.50;99.90;;;;;;4979268;28;20457;-90
2022/10/28 10:35:03;;;;;;;0.32;0.32;;;20.60;99.90;;;;;;4949066;28;20045;-94
2022/10/28 10:37:32;;;;;;;0.30;0.30;;;20.70;99.90;;;;;;4962882;28;20558;-89
2022/10/28 10:40:37;;;;;;;0.35;0.35;;;20.90;99.90;;;;;;4979704;28;20064;-90
2022/10/28 10:43:21;;;;;;;0.30;0.30;;;21.10;99.90;;;;;;4925075;28;20409;-90
2022/10/28 10:45:59;;;;;;;;;;;21.30;99.90;;;;;;4956759;28;20115;-88
2022/10/28 10:48:26;;;;;;;0.40;0.40;;;21.40;99.90;;;;;;4974118;28;20386;-88
2022/10/28 10:50:53;;;;;;;0.30;0.30;;;21.30;99.90;;;;;;4944361;28;20567;-89
2022/10/28 10:53:30;;;;;;;0.30;0.30;;;21.40;99.90;;;;;;4960352;28;20507;-87
2022/10/28 10:56:02;;;;;;;0.30;0.30;;;21.40;99.90;;;;;;4950717;28;20331;-89
2022/10/28 10:58:33;;;;;;;0.30;0.30;;;21.40;99.90;;;;;;4963912;28;20045;-88
2022/10/28 11:01:03;;;;;;;0.50;0.50;;;21.60;99.90;;;;;;4949797;28;20084;-87
2022/10/28 11:03:45;;;;;;;0.40;0.40;;;21.70;99.90;;;;;;4962569;28;20148;-86
2022/10/28 11:06:22;;;;;;;0.40;0.40;;;21.70;99.90;;;;;;4979651;28;20079;-90
2022/10/28 11:08:53;;;;;;;0.30;0.30;;;21.70;99.90;;;;;;4981655;28;20486;-88
2022/10/28 11:11:21;;;;;;;0.40;0.40;;;21.70;99.90;;;;;;4959284;28;20049;-94
2022/10/28 11:14:01;;;;;;;0.40;0.40;;;21.60;99.90;;;;;;5000742;28;20458;-88
2022/10/28 11:16:27;;;;;;;0.40;0.40;;;21.60;99.90;;;;;;4993006;28;20044;-91
2022/10/28 11:18:52;;;;;;;0.40;0.40;;;21.40;99.90;;;;;;4971124;28;20056;-86
2022/10/28 11:21:33;;;;;;;0.40;0.40;;;21.40;99.90;;;;;;4953145;28;20044;-85
2022/10/28 11:24:27;;;;;;;0.40;0.40;;;21.40;99.90;;;;;;4973293;28;20159;-88
2022/10/28 11:27:05;;;;;;;0.40;0.40;;;21.40;99.90;;;;;;4976276;28;21725;-86
2022/10/28 11:29:31;;;;;;;0.40;0.40;;;21.30;99.90;;;;;;4978031;28;20123;-91
2022/10/28 11:32:26;;;;;;;0.30;0.30;;;21.40;99.90;;;;;;4967854;28;20108;-87
2022/10/28 11:35:05;;;;;;;0.40;0.40;;;21.60;99.90;;;;;;4948330;28;20063;-86
2022/10/28 11:37:50;;;;;;;0.40;0.40;;;21.70;99.90;;;;;;4967704;28;20056;-89
2022/10/28 11:40:26;;;;;;;0.40;0.40;;;21.90;99.90;;;;;;4991414;28;20545;-86
2022/10/28 11:42:55;;;;;;;0.40;0.40;;;22.00;99.90;;;;;;4965366;28;20051;-89
2022/10/28 11:45:45;;;;;;;0.40;0.40;;;21.90;99.90;;;;;;4968415;28;20857;-87
2022/10/28 11:48:40;;;;;;;0.30;0.30;;;21.90;99.90;;;;;;4945345;28;20787;-90
2022/10/28 11:51:33;;;;;;;0.40;0.40;;;22.00;99.90;;;;;;4957558;28;20134;-87
2022/10/28 11:54:29;;;;;;;0.30;0.30;;;22.30;99.90;;;;;;4972227;28;20238;-86
2022/10/28 11:57:07;;;;;;;0.30;0.30;;;22.40;99.90;;;;;;4985909;28;20857;-89
2022/10/28 11:59:53;;;;;;;0.30;0.30;;;22.50;99.90;;;;;;4972691;28;20062;-89
2022/10/28 12:02:58;;;;;;;0.30;0.30;;;22.40;99.90;;;;;;4974429;28;20457;-90
2022/10/28 12:05:24;;;;;;;;;;;22.40;99.90;;;;;;4968415;28;20086;-88
2022/10/28 12:08:21;;;;;;;0.30;0.30;;;22.30;99.90;;;;;;4964386;28;20546;-89
2022/10/28 12:11:02;;;;;;;0.30;0.30;;;22.30;99.90;;;;;;4963330;28;20525;-85
2022/10/28 12:13:43;;;;;;;0.30;0.30;;;22.40;99.90;;;;;;4983605;28;20482;-92
2022/10/28 12:16:39;;;;;;;0.30;0.30;;;22.30;99.90;;;;;;4963429;28;20472;-93
2022/10/28 12:19:15;;;;;;;0.30;0.30;;;22.30;99.90;;;;;;4965614;28;20683;-92
2022/10/28 12:21:53;;;;;;;0.30;0.30;;;22.30;99.90;;;;;;4980729;28;20128;-93
2022/10/28 12:24:22;;;;;;;0.40;0.40;;;22.20;99.90;;;;;;4965931;28;20151;-90
2022/10/28 12:26:55;;;;;;;0.40;0.40;;;22.20;99.90;;;;;;4979061;28;20043;-87
2022/10/28 12:29:32;;;;;;;0.40;0.40;;;22.30;99.90;;;;;;4945352;28;20560;-92
2022/10/28 12:32:08;;;;;;;0.40;0.40;;;22.40;99.90;;;;;;4973792;28;20496;-94
2022/10/28 12:34:42;;;;;;;0.40;0.40;;;22.50;99.90;;;;;;4979622;28;20752;-90
2022/10/28 12:37:22;;;;;;;0.40;0.40;;;22.50;99.90;;;;;;4962135;28;20867;-89
2022/10/28 12:40:12;;;;;;;0.40;0.40;;;22.50;99.90;;;;;;4962625;28;20076;-88
2022/10/28 12:43:03;;;;;;;0.30;0.30;;;22.40;99.90;;;;;;4966918;28;20439;-90
2022/10/28 12:45:30;;;;;;;0.40;0.40;;;22.20;99.90;;;;;;4953869;28;20513;-92
2022/10/28 12:48:22;;;;;;;0.40;0.40;;;22.30;99.90;;;;;;4945123;28;20036;-82
2022/10/28 12:50:53;;;;;;;0.40;0.40;;;22.20;99.90;;;;;;4989131;28;20059;-85
2022/10/28 12:53:48;;;;;;;0.40;0.40;;;22.10;99.90;;;;;;4985816;28;20494;-93
2022/10/28 12:56:39;;;;;;;0.40;0.40;;;22.10;99.90;;;;;;4993793;28;20048;-85
2022/10/28 12:59:26;;;;;;;0.40;0.40;;;22.00;99.90;;;;;;4971134;28;20841;-86
2022/10/28 13:01:53;;;;;;;0.40;0.40;;;21.80;99.90;;;;;;4982690;28;20040;-83
2022/10/28 13:04:19;;;;;;;0.40;0.40;;;21.80;99.90;;;;;;5001135;28;20040;-93
2022/10/28 13:07:18;;;;;;;0.40;0.40;;;21.80;99.90;;;;;;4985442;28;20678;-86
2022/10/28 13:09:57;;;;;;;0.40;0.40;;;21.80;99.90;;;;;;4974486;28;20040;-90
2022/10/28 13:13:00;;;;;;;0.40;0.40;;;21.70;99.90;;;;;;4993415;28;20040;-94
2022/10/28 13:15:38;;;;;;;0.40;0.40;;;21.70;99.90;;;;;;4978109;28;20113;-93
2022/10/28 13:18:04;;;;;;;0.40;0.40;;;21.70;99.90;;;;;;4993451;28;20703;-90